Zarate, Argentina
Current Conditions -  °F | °C
As of 3:00 PM on Monday 24 Nov 2014 (Local Time) from SADF Reporting Station
Overcast Overcast  
Wind Chill: 72°   Ceiling: 10000
Heat Index: 72°   Visibility: 6mi
Dew Point: 66°   Wind: 0mph
Humidity: 83%   Direction: NA
Pressure: 29.8"   Gusts: NA
Location:  34.09°S, 59.04°W
Report Text: SADF 241800Z 00000KT 9999 FEW030TCU OVC100 22/19 Q1009 RETSRA
Loading
Personal Weather Stations






























Interactive Weather Map New forecast layout! Learn more

10-Day Weather Forecast

Advertisements
Track Severe Weather on mobile